Time;durP1;ratioP1;P1;durP2;ratioP2;P2;SDS_P1;SDS_P2;PMS_P1;PMS_P2;Temp;Humidity;BMP_temperature;BMP_pressure;BME280_temperature;BME280_humidity;BME280_pressure;Samples;Min_cycle;Max_cycle;Signal;HPM_P1;HPM_P2
2021/05/05 00:00:11;;;;;;;4.78;1.00;;;;;;;8.29;80.99;99073.66;3563472;40;20045;-50
2021/05/05 00:02:38;;;;;;;3.88;1.02;;;;;;;8.22;81.25;99065.94;3563173;40;20122;-52
2021/05/05 00:05:05;;;;;;;2.65;0.90;;;;;;;8.23;80.83;99065.09;3563496;40;20064;-46
2021/05/05 00:07:32;;;;;;;4.45;1.00;;;;;;;8.12;81.76;99062.44;3563326;40;20103;-51
2021/05/05 00:09:58;;;;;;;3.22;1.17;;;;;;;8.14;81.78;99058.25;3562554;40;20050;-47
2021/05/05 00:12:25;;;;;;;2.33;0.95;;;;;;;8.12;81.92;99058.22;3564810;40;20168;-50
2021/05/05 00:14:51;;;;;;;3.38;1.20;;;;;;;8.05;81.97;99068.34;3564947;40;20057;-51
2021/05/05 00:17:18;;;;;;;4.10;1.20;;;;;;;8.11;82.21;99063.28;3564049;40;20109;-50
2021/05/05 00:19:45;;;;;;;2.30;1.02;;;;;;;8.02;82.54;99053.00;3563150;40;20049;-46
2021/05/05 00:22:12;;;;;;;3.60;1.13;;;;;;;8.02;82.36;99058.13;3562971;40;20645;-47
2021/05/05 00:24:38;;;;;;;1.23;0.90;;;;;;;7.91;83.23;99052.94;3563621;40;20513;-52
2021/05/05 00:27:05;;;;;;;2.55;1.15;;;;;;;7.93;82.96;99060.56;3563382;40;20767;-49
2021/05/05 00:29:32;;;;;;;5.68;1.20;;;;;;;7.97;82.77;99062.31;3562961;40;20412;-49
2021/05/05 00:31:58;;;;;;;2.40;0.90;;;;;;;8.04;82.37;99064.94;3562309;40;20085;-54
2021/05/05 00:34:25;;;;;;;3.20;1.65;;;;;;;7.83;83.13;99052.84;3563393;40;20061;-49
2021/05/05 00:36:54;;;;;;;1.38;0.90;;;;;;;7.99;82.26;99064.03;3563114;40;20077;-51
2021/05/05 00:39:21;;;;;;;4.45;1.27;;;;;;;8.00;82.06;99054.72;3562950;40;20097;-49
2021/05/05 00:41:47;;;;;;;3.40;1.52;;;;;;;7.95;82.38;99047.03;3562795;40;20087;-47
2021/05/05 00:44:16;;;;;;;3.25;1.23;;;;;;;7.91;82.29;99048.69;3563002;40;20057;-47
2021/05/05 00:46:42;;;;;;;2.17;1.15;;;;;;;7.93;82.14;99058.03;3562847;40;20883;-49
2021/05/05 00:49:09;;;;;;;5.28;1.10;;;;;;;7.89;82.16;99047.78;3563024;40;20047;-50
2021/05/05 00:51:37;;;;;;;2.80;1.13;;;;;;;7.83;82.63;99050.28;3562802;40;20097;-49
2021/05/05 00:54:04;;;;;;;3.05;1.30;;;;;;;7.83;82.53;99051.97;3563016;40;20057;-48
2021/05/05 00:56:31;;;;;;;2.08;1.27;;;;;;;7.80;82.36;99062.13;3562948;40;20109;-49
2021/05/05 00:58:58;;;;;;;4.82;1.17;;;;;;;7.82;82.00;99060.47;3562274;40;20050;-49
2021/05/05 01:01:24;;;;;;;4.20;1.20;;;;;;;7.83;81.74;99059.63;3563178;40;20068;-47
2021/05/05 01:03:51;;;;;;;5.20;1.23;;;;;;;7.83;81.46;99050.28;3562867;40;20089;-48
2021/05/05 01:06:18;;;;;;;5.20;1.50;;;;;;;7.82;81.73;99055.38;3562938;40;20374;-48
2021/05/05 01:08:46;;;;;;;5.40;1.15;;;;;;;7.86;81.17;99057.97;3562699;40;20061;-49
2021/05/05 01:11:14;;;;;;;2.88;1.10;;;;;;;7.88;80.94;99045.25;3562819;40;20085;-49
2021/05/05 01:13:44;;;;;;;3.67;1.38;;;;;;;7.88;81.02;99056.28;3562967;40;20061;-47
2021/05/05 01:16:15;;;;;;;3.20;1.20;;;;;;;7.90;80.56;99052.06;3563944;40;20057;-47
2021/05/05 01:18:42;;;;;;;5.25;1.40;;;;;;;7.93;80.48;99058.03;3562646;40;20334;-50
2021/05/05 01:21:09;;;;;;;4.60;1.33;;;;;;;7.99;80.08;99046.19;3562627;40;20045;-47
2021/05/05 01:23:36;;;;;;;3.42;1.05;;;;;;;8.08;79.78;99050.50;3562694;40;20431;-47
2021/05/05 01:26:03;;;;;;;3.40;0.90;;;;;;;8.07;79.79;99051.34;3562997;40;20068;-50
2021/05/05 01:28:29;;;;;;;3.35;1.27;;;;;;;8.04;80.18;99047.09;3562619;40;20045;-47
2021/05/05 01:30:56;;;;;;;8.00;1.40;;;;;;;8.08;79.43;99046.28;3562805;40;20053;-49
2021/05/05 01:33:23;;;;;;;2.40;1.30;;;;;;;7.95;80.02;99049.56;3562730;40;20363;-49
2021/05/05 01:35:50;;;;;;;5.00;1.30;;;;;;;7.97;80.14;99041.94;3562076;40;20193;-51
2021/05/05 01:38:17;;;;;;;4.18;0.93;;;;;;;7.91;80.45;99046.13;3562739;40;20152;-51
2021/05/05 01:40:44;;;;;;;3.08;1.10;;;;;;;7.93;80.38;99050.38;3562428;40;20477;-48
2021/05/05 01:43:11;;;;;;;4.07;1.30;;;;;;;7.82;80.35;99040.94;3563761;40;20104;-49
2021/05/05 01:45:38;;;;;;;4.47;1.15;;;;;;;7.72;81.01;99038.25;3562670;40;20457;-49
2021/05/05 01:48:07;;;;;;;3.83;1.25;;;;;;;7.80;80.58;99031.56;3562627;40;20615;-50
2021/05/05 01:50:34;;;;;;;3.10;1.23;;;;;;;7.81;80.75;99031.59;3565643;40;20056;-50
2021/05/05 01:53:01;;;;;;;2.38;1.58;;;;;;;7.72;80.93;99034.06;3565856;40;20087;-51
2021/05/05 01:55:27;;;;;;;5.20;1.15;;;;;;;7.74;81.26;99039.16;3562841;40;20062;-47
2021/05/05 01:57:54;;;;;;;4.93;1.55;;;;;;;7.69;81.56;99034.00;3562686;40;20097;-49
2021/05/05 02:00:23;;;;;;;4.43;1.25;;;;;;;7.68;81.73;99024.66;3553280;40;20197;-49
2021/05/05 02:02:50;;;;;;;5.45;1.30;;;;;;;7.64;81.56;99028.00;3562409;40;20121;-47
2021/05/05 02:05:17;;;;;;;5.13;1.45;;;;;;;7.62;81.71;99032.22;3562431;40;20093;-47
2021/05/05 02:07:48;;;;;;;5.03;1.25;;;;;;;7.64;82.10;99023.78;3562190;40;20041;-50
2021/05/05 02:10:18;;;;;;;2.58;1.30;;;;;;;7.65;81.47;99022.94;3562302;40;20064;-47
2021/05/05 02:12:45;;;;;;;5.60;1.77;;;;;;;7.61;81.83;99015.22;3562169;40;20438;-50
2021/05/05 02:15:14;;;;;;;2.85;1.10;;;;;;;7.64;81.71;99022.91;3562403;40;20439;-53
2021/05/05 02:17:41;;;;;;;2.72;1.17;;;;;;;7.69;81.77;99023.81;3562251;40;20093;-48
2021/05/05 02:20:09;;;;;;;4.10;1.25;;;;;;;7.59;82.04;99024.56;3562490;40;20034;-49
2021/05/05 02:22:36;;;;;;;2.67;1.50;;;;;;;7.56;81.97;99024.53;3562550;40;20056;-47
2021/05/05 02:25:04;;;;;;;4.43;1.25;;;;;;;7.57;82.44;99021.97;3562188;40;20174;-48
2021/05/05 02:27:31;;;;;;;2.15;1.20;;;;;;;7.59;82.46;99030.50;3562066;40;20145;-48
2021/05/05 02:29:57;;;;;;;4.30;1.60;;;;;;;7.55;82.54;99033.84;3561591;40;20045;-46
2021/05/05 02:32:24;;;;;;;3.00;1.42;;;;;;;7.52;82.76;99027.88;3562390;40;20042;-47
2021/05/05 02:34:53;;;;;;;8.63;2.10;;;;;;;7.53;82.65;99032.13;3562225;40;20057;-49
2021/05/05 02:37:19;;;;;;;2.20;1.40;;;;;;;7.51;82.51;99028.72;3562023;40;20105;-47
2021/05/05 02:39:46;;;;;;;5.35;1.92;;;;;;;7.54;82.88;99023.66;3562061;40;20065;-47
2021/05/05 02:42:15;;;;;;;2.53;1.20;;;;;;;7.46;82.93;99018.47;3562240;40;20050;-50
2021/05/05 02:44:45;;;;;;;4.10;1.35;;;;;;;7.42;83.33;99021.81;3562144;40;20443;-50
2021/05/05 02:47:12;;;;;;;4.15;1.50;;;;;;;7.42;83.38;99019.28;3563962;40;20057;-48
2021/05/05 02:49:40;;;;;;;2.88;1.23;;;;;;;7.43;83.01;99012.50;3568751;40;20114;-52
2021/05/05 02:52:07;;;;;;;6.78;1.35;;;;;;;7.40;83.32;99016.72;3570889;40;20056;-51
2021/05/05 02:54:46;;;;;;;8.10;2.40;;;;;;;7.35;83.18;99023.47;3568535;40;20077;-51
2021/05/05 02:57:15;;;;;;;5.22;1.27;;;;;;;7.31;83.54;99014.06;3565538;40;20064;-50
2021/05/05 02:59:43;;;;;;;4.82;1.45;;;;;;;7.26;83.74;99015.72;3563733;40;20134;-49
2021/05/05 03:02:10;;;;;;;3.33;1.55;;;;;;;7.37;83.60;99011.59;3564703;40;20073;-48
2021/05/05 03:04:36;;;;;;;3.40;1.45;;;;;;;7.36;83.30;99009.03;3563509;40;20067;-47
2021/05/05 03:07:03;;;;;;;3.78;1.48;;;;;;;7.37;83.24;99003.09;3563716;40;20840;-49
2021/05/05 03:09:29;;;;;;;4.07;2.33;;;;;;;7.30;82.91;99011.50;3563592;40;20455;-49
2021/05/05 03:11:57;;;;;;;3.88;1.88;;;;;;;7.34;82.56;99023.41;3563700;40;20041;-48
2021/05/05 03:14:26;;;;;;;4.25;1.55;;;;;;;7.30;82.75;99020.00;3554330;40;20053;-47
2021/05/05 03:16:54;;;;;;;3.30;1.27;;;;;;;7.27;82.83;99014.88;3563473;40;20128;-47
2021/05/05 03:19:21;;;;;;;2.45;1.38;;;;;;;7.27;82.68;99007.22;3563607;40;20056;-47
2021/05/05 03:21:48;;;;;;;3.78;2.05;;;;;;;7.23;82.40;99000.41;3563675;40;20057;-47
2021/05/05 03:24:15;;;;;;;7.10;1.60;;;;;;;7.22;82.65;99003.78;3563852;40;20448;-51
2021/05/05 03:26:41;;;;;;;6.97;1.55;;;;;;;7.19;82.55;99000.34;3563818;40;20427;-50
2021/05/05 03:29:08;;;;;;;4.30;1.52;;;;;;;7.14;82.84;98995.19;3566237;40;20056;-51
2021/05/05 03:31:35;;;;;;;3.33;1.15;;;;;;;7.09;83.50;98996.84;3565823;40;20124;-50
2021/05/05 03:34:03;;;;;;;6.22;1.70;;;;;;;7.10;82.82;99004.47;3563588;40;20058;-48
2021/05/05 03:36:30;;;;;;;2.15;1.90;;;;;;;7.09;82.53;99007.00;3561763;40;20137;-48
2021/05/05 03:38:57;;;;;;;4.68;1.33;;;;;;;7.12;82.33;99018.09;3563732;40;20038;-49
2021/05/05 03:41:24;;;;;;;4.43;1.60;;;;;;;7.13;82.25;99014.69;3563689;40;20399;-48
2021/05/05 03:43:50;;;;;;;2.65;1.58;;;;;;;7.16;81.79;99011.31;3563325;40;20681;-48
2021/05/05 03:46:16;;;;;;;5.25;1.48;;;;;;;7.15;81.79;99010.47;3563599;40;20084;-52
2021/05/05 03:48:43;;;;;;;7.05;1.60;;;;;;;7.13;81.75;99016.41;3563597;40;20053;-52
2021/05/05 03:51:11;;;;;;;5.18;1.88;;;;;;;7.10;81.57;99007.03;3564280;40;20045;-48
2021/05/05 03:53:37;;;;;;;4.22;1.77;;;;;;;7.11;81.78;99013.81;3563548;40;20101;-48
2021/05/05 03:56:05;;;;;;;5.05;1.55;;;;;;;7.09;81.38;99022.28;3563499;40;20064;-47
2021/05/05 03:58:31;;;;;;;4.20;1.73;;;;;;;7.18;80.93;99024.09;3562900;40;20101;-51
2021/05/05 04:00:59;;;;;;;4.45;1.70;;;;;;;7.14;80.91;99020.66;3563642;40;20049;-50
2021/05/05 04:03:25;;;;;;;4.25;1.50;;;;;;;7.10;80.90;99013.81;3563647;40;20059;-47
2021/05/05 04:05:52;;;;;;;3.97;1.70;;;;;;;7.15;80.28;99012.16;3564277;40;20061;-52
2021/05/05 04:08:18;;;;;;;2.35;1.55;;;;;;;7.21;79.71;99019.00;3564432;40;20124;-47
2021/05/05 04:10:45;;;;;;;4.95;1.42;;;;;;;7.24;80.03;99021.59;3563296;40;20061;-49
2021/05/05 04:13:12;;;;;;;4.00;1.45;;;;;;;7.30;79.19;99024.22;3563391;40;20053;-50
2021/05/05 04:15:56;;;;;;;4.55;1.60;;;;;;;7.33;78.73;99022.56;3563313;40;20060;-49
2021/05/05 04:18:40;;;;;;;3.53;1.70;;;;;;;7.42;77.40;99013.34;3562823;40;20052;-54
2021/05/05 04:21:26;;;;;;;2.92;1.50;;;;;;;7.53;76.56;99016.84;3572380;40;20238;-50
2021/05/05 04:24:12;;;;;;;4.00;1.65;;;;;;;7.53;75.61;99012.59;3569354;40;20048;-51
2021/05/05 04:26:39;;;;;;;4.60;1.70;;;;;;;7.62;75.08;99012.69;3563991;40;20054;-54
2021/05/05 04:29:05;;;;;;;6.45;1.63;;;;;;;7.71;74.28;99019.59;3563325;40;20042;-48
2021/05/05 04:31:32;;;;;;;5.40;1.92;;;;;;;7.90;73.05;99020.59;3563036;40;20052;-51
2021/05/05 04:33:59;;;;;;;5.32;1.45;;;;;;;7.99;72.04;99027.50;3562567;40;20053;-52
2021/05/05 04:36:25;;;;;;;3.38;1.30;;;;;;;8.22;70.93;99028.53;3563765;40;20085;-48
2021/05/05 04:38:52;;;;;;;3.90;1.33;;;;;;;8.21;70.22;99019.19;3563178;40;20304;-48
2021/05/05 04:41:19;;;;;;;4.85;1.52;;;;;;;8.28;70.37;99026.06;3563022;40;20156;-48
2021/05/05 04:43:46;;;;;;;6.97;1.40;;;;;;;8.45;70.26;99028.75;3563225;40;20041;-48
2021/05/05 04:46:13;;;;;;;4.10;1.20;;;;;;;8.44;69.06;99023.66;3563519;40;20073;-51
2021/05/05 04:48:39;;;;;;;2.47;1.58;;;;;;;8.41;69.24;99030.44;3563072;40;20064;-46
2021/05/05 04:51:10;;;;;;;3.63;1.35;;;;;;;8.28;70.01;99036.25;3562988;40;20054;-46
2021/05/05 04:53:36;;;;;;;3.08;1.50;;;;;;;8.35;69.38;99022.69;3563107;40;20069;-49
2021/05/05 04:56:03;;;;;;;6.47;1.70;;;;;;;8.23;69.31;99025.19;3562380;40;20106;-56
2021/05/05 04:58:30;;;;;;;1.52;0.95;;;;;;;8.17;68.93;99037.84;3562114;40;20089;-54
2021/05/05 05:00:56;;;;;;;3.85;1.30;;;;;;;8.23;69.64;99022.63;3562441;40;20055;-48
2021/05/05 05:03:23;;;;;;;5.18;1.90;;;;;;;8.23;69.69;99029.41;3562628;40;20085;-49
2021/05/05 05:05:49;;;;;;;3.60;0.93;;;;;;;8.23;68.28;99030.28;3565795;40;20454;-49
2021/05/05 05:08:16;;;;;;;3.40;1.83;;;;;;;8.34;68.82;99043.94;3570543;40;20427;-51
2021/05/05 05:10:42;;;;;;;2.28;1.40;;;;;;;8.32;68.70;99034.56;3563463;40;20352;-46
2021/05/05 05:13:09;;;;;;;4.68;1.58;;;;;;;8.29;69.04;99027.75;3563662;40;20053;-52
2021/05/05 05:15:35;;;;;;;5.60;1.45;;;;;;;8.39;67.39;99037.22;3564802;40;20057;-52
2021/05/05 05:18:02;;;;;;;4.80;1.50;;;;;;;8.45;67.87;99041.50;3562830;40;20050;-49
2021/05/05 05:20:29;;;;;;;4.85;2.33;;;;;;;8.60;66.98;99045.91;3563553;40;20068;-46
2021/05/05 05:22:55;;;;;;;10.63;1.75;;;;;;;8.65;66.95;99047.63;3563341;40;20074;-47
2021/05/05 05:25:26;;;;;;;3.63;1.65;;;;;;;8.64;66.24;99045.94;3562871;40;20080;-50
2021/05/05 05:27:52;;;;;;;2.40;1.27;;;;;;;8.70;65.56;99044.25;3562389;40;20057;-51
2021/05/05 05:30:23;;;;;;;4.05;1.50;;;;;;;8.65;65.91;99044.22;3562608;40;20175;-51
2021/05/05 05:32:50;;;;;;;6.88;1.75;;;;;;;8.60;65.27;99035.69;3562682;40;20518;-46
2021/05/05 05:35:17;;;;;;;2.22;1.42;;;;;;;8.60;65.96;99040.78;3561153;40;20502;-48
2021/05/05 05:37:46;;;;;;;5.63;1.55;;;;;;;8.48;65.20;99041.53;3562093;40;20098;-50
2021/05/05 05:40:14;;;;;;;2.83;1.27;;;;;;;8.60;65.80;99048.44;3564970;40;20131;-53
2021/05/05 05:42:43;;;;;;;4.32;1.35;;;;;;;8.61;64.89;99048.44;3564284;40;20052;-49
2021/05/05 05:45:12;;;;;;;5.03;1.30;;;;;;;8.84;64.36;99046.03;3565126;40;20065;-46
2021/05/05 05:47:41;;;;;;;4.50;1.50;;;;;;;8.99;63.91;99046.97;3564570;40;20077;-48
2021/05/05 05:50:10;;;;;;;7.65;1.83;;;;;;;9.07;64.07;99041.06;3564900;40;20108;-48
2021/05/05 05:52:37;;;;;;;2.65;1.27;;;;;;;9.13;62.33;99047.91;3564824;40;20069;-46
2021/05/05 05:55:07;;;;;;;2.58;1.00;;;;;;;9.17;61.77;99053.03;3565159;40;20085;-47
2021/05/05 05:57:34;;;;;;;1.45;1.00;;;;;;;9.11;62.14;99052.16;3564764;40;20131;-54
2021/05/05 06:00:01;;;;;;;4.10;1.20;;;;;;;9.33;62.77;99051.38;3565182;40;20053;-50
2021/05/05 06:02:28;;;;;;;4.22;1.52;;;;;;;9.43;62.09;99049.75;3562224;40;20085;-49
2021/05/05 06:04:56;;;;;;;4.28;1.33;;;;;;;9.56;60.89;99033.59;3562425;40;20096;-49
2021/05/05 06:07:23;;;;;;;4.05;1.40;;;;;;;9.41;60.89;99041.22;3568014;40;20076;-46
2021/05/05 06:09:50;;;;;;;4.25;1.70;;;;;;;9.61;61.02;99039.59;3564335;40;20065;-48
2021/05/05 06:12:17;;;;;;;6.53;2.55;;;;;;;9.70;60.75;99046.41;3562620;40;20085;-46
2021/05/05 06:14:45;;;;;;;6.40;2.45;;;;;;;9.86;59.24;99048.16;3562377;40;20061;-49
2021/05/05 06:17:12;;;;;;;4.82;1.85;;;;;;;9.91;60.10;99041.34;3562116;40;20098;-52
2021/05/05 06:19:40;;;;;;;5.75;1.40;;;;;;;10.05;58.89;99050.75;3564829;40;20037;-46
2021/05/05 06:22:07;;;;;;;3.33;1.60;;;;;;;10.05;58.67;99038.81;3564924;40;20056;-45
2021/05/05 06:24:34;;;;;;;5.35;1.92;;;;;;;10.04;57.26;99041.38;3564229;40;20057;-51
2021/05/05 06:27:01;;;;;;;4.10;1.48;;;;;;;10.15;57.27;99053.31;3566202;40;20493;-46
2021/05/05 06:29:29;;;;;;;6.50;1.65;;;;;;;10.14;57.88;99051.59;3564950;40;20331;-48
2021/05/05 06:31:56;;;;;;;3.55;1.38;;;;;;;10.24;57.74;99041.38;3562876;40;20053;-49
2021/05/05 06:34:23;;;;;;;2.42;0.93;;;;;;;10.22;56.42;99051.63;3565320;40;20057;-48
2021/05/05 06:36:52;;;;;;;2.28;1.50;;;;;;;10.42;58.17;99049.94;3566111;40;20176;-47
2021/05/05 06:39:19;;;;;;;3.35;1.60;;;;;;;10.70;56.64;99045.66;3565466;40;20053;-52
2021/05/05 06:41:46;;;;;;;7.18;1.63;;;;;;;10.80;56.31;99045.63;3565802;40;20052;-51
2021/05/05 06:44:13;;;;;;;3.67;1.50;;;;;;;10.80;55.90;99050.75;3569991;40;20131;-51
2021/05/05 06:46:43;;;;;;;5.63;1.80;;;;;;;10.84;55.35;99061.00;3567605;40;20108;-51
2021/05/05 06:49:12;;;;;;;2.38;1.48;;;;;;;10.75;55.09;99049.91;3566725;40;20115;-46
2021/05/05 06:51:40;;;;;;;2.08;1.30;;;;;;;10.83;55.18;99053.31;3565678;40;20065;-51
2021/05/05 06:54:07;;;;;;;1.67;1.48;;;;;;;11.06;55.03;99051.56;3565504;40;20053;-45
2021/05/05 06:56:35;;;;;;;5.65;1.38;;;;;;;11.25;53.10;99067.72;3563849;40;20053;-45
2021/05/05 06:59:02;;;;;;;2.45;1.75;;;;;;;10.91;52.97;99064.41;3565549;40;20700;-48
2021/05/05 07:01:29;;;;;;;3.35;1.58;;;;;;;11.05;53.93;99056.69;3566172;40;20076;-50
2021/05/05 07:03:57;;;;;;;2.42;1.10;;;;;;;11.39;53.60;99055.72;3563745;40;20132;-46
2021/05/05 07:06:24;;;;;;;6.07;1.67;;;;;;;11.30;52.65;99070.28;3564993;40;20048;-46
2021/05/05 07:08:52;;;;;;;2.25;1.35;;;;;;;11.09;52.65;99056.69;3563126;40;20077;-46
2021/05/05 07:11:19;;;;;;;5.13;1.80;;;;;;;10.97;53.25;99051.56;3565172;40;20072;-47
2021/05/05 07:13:47;;;;;;;3.30;1.50;;;;;;;11.58;52.66;99051.34;3563357;40;20160;-53
2021/05/05 07:16:14;;;;;;;3.30;1.42;;;;;;;11.77;51.15;99070.06;3565729;40;20319;-46
2021/05/05 07:18:41;;;;;;;2.85;1.45;;;;;;;12.20;49.87;99056.97;3563550;40;20053;-49
2021/05/05 07:21:08;;;;;;;4.35;1.08;;;;;;;12.01;50.46;99068.25;3563667;40;20466;-50
2021/05/05 07:23:36;;;;;;;4.65;1.52;;;;;;;11.91;50.34;99070.00;3563615;40;20061;-47
2021/05/05 07:26:04;;;;;;;3.50;1.75;;;;;;;11.15;52.45;99061.78;3563052;40;20045;-46
2021/05/05 07:28:32;;;;;;;4.43;1.58;;;;;;;11.36;52.28;99062.53;3564574;40;20049;-48
2021/05/05 07:31:00;;;;;;;2.45;1.60;;;;;;;11.15;51.07;99068.59;3563023;40;20090;-50
2021/05/05 07:33:27;;;;;;;4.30;1.55;;;;;;;11.49;50.30;99066.78;3561745;40;20125;-49
2021/05/05 07:35:57;;;;;;;3.35;1.48;;;;;;;11.35;50.74;99068.53;3562586;40;20056;-47
2021/05/05 07:38:52;;;;;;;3.35;1.33;;;;;;;11.42;50.07;99073.66;3563471;40;20420;-49
2021/05/05 07:42:07;;;;;;;4.72;1.33;;;;;;;11.88;50.28;99054.66;3564933;40;20134;-50
2021/05/05 07:47:23;;;;;;;5.50;1.85;;;;;;;12.11;49.48;99070.75;3552609;40;20041;-50
2021/05/05 07:49:51;;;;;;;2.15;1.30;;;;;;;12.07;50.72;99035.72;3564107;40;20431;-48
2021/05/05 07:52:19;;;;;;;3.70;1.60;;;;;;;12.06;50.11;99064.78;3564664;40;20061;-48
2021/05/05 07:54:46;;;;;;;2.25;1.45;;;;;;;11.70;50.93;99082.06;3564146;40;20053;-49
2021/05/05 07:57:12;;;;;;;3.53;1.70;;;;;;;11.69;51.05;99071.78;3564578;40;20581;-48
2021/05/05 07:59:38;;;;;;;2.60;1.63;;;;;;;12.41;50.34;99066.25;3565648;40;20052;-48
2021/05/05 08:02:06;;;;;;;2.85;1.23;;;;;;;12.69;49.88;99077.97;3564881;40;20049;-46
2021/05/05 08:04:33;;;;;;;2.75;1.42;;;;;;;12.54;47.22;99074.72;3565255;40;20060;-52
2021/05/05 08:07:00;;;;;;;1.95;1.23;;;;;;;12.37;47.59;99085.09;3565404;40;20085;-50
2021/05/05 08:09:27;;;;;;;4.75;1.40;;;;;;;12.73;48.18;99094.22;3564518;40;20109;-46
2021/05/05 08:11:54;;;;;;;3.20;1.15;;;;;;;12.86;45.79;99090.69;3565735;40;20060;-49
2021/05/05 08:14:21;;;;;;;2.90;1.30;;;;;;;12.97;46.95;99085.44;3567475;40;20048;-53
2021/05/05 08:16:48;;;;;;;2.30;1.17;;;;;;;13.24;47.00;99095.47;3564820;40;20075;-54
2021/05/05 08:19:15;;;;;;;11.43;2.10;;;;;;;12.95;47.42;99103.44;3567884;40;20420;-50
2021/05/05 08:21:42;;;;;;;4.57;1.17;;;;;;;12.69;46.45;99095.09;3569399;40;20495;-51
2021/05/05 08:24:09;;;;;;;3.42;1.30;;;;;;;12.97;45.53;99091.41;3564805;40;20500;-51
2021/05/05 08:26:36;;;;;;;2.90;1.67;;;;;;;13.28;46.84;99093.72;3562463;40;20447;-50
2021/05/05 08:29:03;;;;;;;5.05;1.75;;;;;;;12.74;47.29;99096.75;3563807;40;20056;-47
2021/05/05 08:31:30;;;;;;;6.50;1.42;;;;;;;12.52;47.49;99097.81;3563621;40;20057;-46
2021/05/05 08:33:57;;;;;;;3.55;1.60;;;;;;;11.84;48.60;99099.97;3564291;40;20049;-46
2021/05/05 08:36:24;;;;;;;2.67;1.35;;;;;;;11.45;50.93;99100.97;3564135;40;20378;-47
2021/05/05 08:39:01;;;;;;;2.97;1.48;;;;;;;11.19;52.28;99101.91;3561217;40;20127;-51
2021/05/05 08:41:30;;;;;;;2.00;1.35;;;;;;;11.16;54.41;99118.97;3562437;40;20122;-48
2021/05/05 08:43:57;;;;;;;3.88;1.85;;;;;;;10.03;65.86;99109.56;3565258;40;20046;-50
2021/05/05 08:46:24;;;;;;;3.63;2.28;;;;;;;9.51;69.68;99106.81;3565461;40;20065;-46
2021/05/05 08:48:50;;;;;;;4.93;2.20;;;;;;;9.78;74.71;99108.63;3564606;40;20087;-49
2021/05/05 08:51:17;;;;;;;6.15;2.35;;;;;;;10.25;72.74;99112.19;3565009;40;20045;-48
2021/05/05 08:53:44;;;;;;;6.07;1.70;;;;;;;10.71;69.98;99097.69;3565422;40;20064;-46
2021/05/05 08:56:11;;;;;;;4.38;2.20;;;;;;;11.28;64.97;99098.47;3564206;40;20068;-46
2021/05/05 08:58:37;;;;;;;7.30;2.80;;;;;;;11.96;58.42;99104.19;3568382;40;20139;-50
2021/05/05 09:01:07;;;;;;;2.47;1.33;;;;;;;12.04;54.25;99105.00;3564519;40;20053;-45
2021/05/05 09:03:40;;;;;;;3.10;1.52;;;;;;;11.91;54.78;99101.63;3564534;40;20058;-48
2021/05/05 09:06:07;;;;;;;3.53;1.10;;;;;;;11.88;51.90;99099.09;3564918;40;20127;-46
2021/05/05 09:08:35;;;;;;;5.25;2.03;;;;;;;12.26;51.80;99108.28;3564419;40;20149;-52
2021/05/05 09:11:07;;;;;;;2.45;1.20;;;;;;;12.32;49.24;99086.84;3562539;40;20053;-51
2021/05/05 09:13:51;;;;;;;6.90;1.13;;;;;;;12.78;48.79;99089.91;3562368;40;20458;-51
2021/05/05 09:16:38;;;;;;;4.10;1.42;;;;;;;12.84;48.88;99104.38;3565082;40;20061;-50
2021/05/05 09:19:12;;;;;;;6.20;1.13;;;;;;;12.76;47.75;99096.78;3565160;40;20053;-47
2021/05/05 09:21:42;;;;;;;1.58;0.90;;;;;;;12.42;47.51;99089.31;3564383;40;20049;-50
2021/05/05 09:24:22;;;;;;;4.60;1.10;;;;;;;12.20;46.88;99101.47;3564180;40;20050;-46
2021/05/05 09:26:57;;;;;;;3.08;1.08;;;;;;;11.64;51.53;99117.97;3564467;40;20067;-50
2021/05/05 09:29:46;;;;;;;2.95;1.13;;;;;;;10.78;59.86;99132.69;3563993;40;20089;-49
2021/05/05 09:32:16;;;;;;;2.75;1.70;;;;;;;10.16;67.66;99148.78;3564016;40;20085;-52
2021/05/05 09:34:56;;;;;;;1.77;1.00;;;;;;;9.02;73.22;99172.09;3565262;40;20064;-46
2021/05/05 09:37:24;;;;;;;5.07;2.28;;;;;;;7.97;84.80;99165.13;3565894;40;20081;-47
2021/05/05 09:40:05;;;;;;;5.80;3.45;;;;;;;7.65;88.22;99145.19;3563339;40;20053;-51
2021/05/05 09:42:34;;;;;;;3.65;2.67;;;;;;;8.07;89.90;99132.94;3560678;40;20085;-49
2021/05/05 09:45:08;;;;;;;4.85;2.28;;;;;;;8.67;90.25;99131.81;3564409;40;20057;-50
2021/05/05 09:47:57;;;;;;;2.40;1.80;;;;;;;9.80;88.12;99129.06;3561376;40;20131;-49
2021/05/05 09:50:37;;;;;;;1.52;1.42;;;;;;;9.57;80.29;99124.75;3564595;40;20061;-45
2021/05/05 09:53:17;;;;;;;3.70;1.70;;;;;;;10.53;78.16;99116.47;3561951;40;20077;-49
2021/05/05 09:56:03;;;;;;;1.90;1.50;;;;;;;13.48;69.01;99122.59;3568371;40;20050;-49
2021/05/05 09:58:31;;;;;;;;;;;;;;;16.23;56.04;99118.88;3569676;40;20045;-50
2021/05/05 10:01:04;;;;;;;2.25;0.90;;;;;;;18.57;46.19;99115.09;3565181;40;19944;-52
2021/05/05 10:03:49;;;;;;;2.08;1.13;;;;;;;19.31;43.79;99121.28;3565146;40;20044;-54
2021/05/05 10:06:37;;;;;;;3.28;0.95;;;;;;;19.55;44.30;99119.53;3562138;40;20053;-50
2021/05/05 10:09:05;;;;;;;2.88;1.42;;;;;;;21.25;36.60;99129.31;3562886;40;20037;-50
2021/05/05 10:11:37;;;;;;;1.50;1.00;;;;;;;21.51;36.46;99123.00;3563762;40;20057;-48
2021/05/05 10:14:18;;;;;;;2.95;1.00;;;;;;;22.18;33.08;99119.09;3563832;40;20049;-48
2021/05/05 10:16:52;;;;;;;1.48;1.10;;;;;;;21.81;35.08;99118.16;3564814;40;20057;-50
2021/05/05 10:19:23;;;;;;;3.73;0.97;;;;;;;21.28;35.23;99115.34;3565131;40;20042;-48
2021/05/05 10:22:03;;;;;;;5.15;1.10;;;;;;;18.48;36.19;99129.19;3564510;40;20049;-49
2021/05/05 10:24:37;;;;;;;2.70;1.23;;;;;;;16.61;38.65;99106.81;3563157;40;20053;-49
2021/05/05 10:27:04;;;;;;;2.70;1.35;;;;;;;15.84;39.60;99089.63;3565933;40;20049;-47
2021/05/05 10:29:34;;;;;;;3.05;0.93;;;;;;;18.97;37.42;99111.22;3565934;40;20081;-49
2021/05/05 10:32:09;;;;;;;2.47;0.90;;;;;;;21.66;31.66;99126.69;3565550;40;20166;-48
2021/05/05 10:34:36;;;;;;;3.42;1.08;;;;;;;20.66;31.83;99114.47;3562686;40;20513;-47
2021/05/05 10:37:04;;;;;;;3.50;1.00;;;;;;;18.77;33.55;99110.16;3565912;40;20065;-50
2021/05/05 10:39:32;;;;;;;2.00;0.68;;;;;;;21.39;31.73;99125.31;3564132;40;20057;-53
2021/05/05 10:41:59;;;;;;;1.10;0.70;;;;;;;23.22;26.62;99115.78;3564766;40;20053;-51
2021/05/05 10:44:34;;;;;;;2.17;0.52;;;;;;;23.61;27.69;99121.50;3565896;40;20065;-49
2021/05/05 10:47:15;;;;;;;1.90;0.60;;;;;;;19.63;30.33;99121.91;3563753;40;20489;-50
2021/05/05 10:50:05;;;;;;;2.28;0.80;;;;;;;17.30;33.78;99119.69;3562326;40;20045;-50
2021/05/05 10:52:34;;;;;;;1.73;0.70;;;;;;;16.82;37.26;99116.63;3562032;40;20112;-52
2021/05/05 10:55:12;;;;;;;4.53;0.90;;;;;;;15.62;39.26;99117.56;3563236;40;20415;-48
2021/05/05 10:57:41;;;;;;;2.72;0.73;;;;;;;15.02;40.89;99129.88;3565745;40;20089;-52
2021/05/05 11:00:14;;;;;;;1.25;0.70;;;;;;;18.03;36.12;99147.03;3563989;40;20085;-53
2021/05/05 11:02:44;;;;;;;1.10;0.70;;;;;;;20.03;32.58;99131.66;3563994;40;20060;-48
2021/05/05 11:05:19;;;;;;;2.90;0.70;;;;;;;21.67;29.97;99150.97;3563798;40;20485;-47
2021/05/05 11:07:55;;;;;;;1.48;1.23;;;;;;;22.05;29.22;99141.44;3562723;40;20796;-55
2021/05/05 11:10:48;;;;;;;3.45;0.80;;;;;;;25.40;24.55;99160.38;3563212;40;20070;-51
2021/05/05 11:13:18;;;;;;;2.25;1.15;;;;;;;24.69;23.97;99158.38;3563060;40;20506;-48
2021/05/05 11:15:45;;;;;;;4.63;0.70;;;;;;;20.71;29.59;99137.69;3562739;40;20327;-54
2021/05/05 11:18:39;;;;;;;2.75;0.55;;;;;;;19.97;28.94;99135.34;3562270;40;20083;-48
2021/05/05 11:21:09;;;;;;;2.45;0.60;;;;;;;20.24;29.22;99140.38;3562991;40;20054;-49
2021/05/05 11:23:40;;;;;;;4.38;0.93;;;;;;;20.95;28.72;99138.44;3554072;40;20038;-50
2021/05/05 11:26:27;;;;;;;4.38;0.73;;;;;;;19.47;31.95;99145.81;3564011;40;20068;-48
2021/05/05 11:29:00;;;;;;;3.58;1.17;;;;;;;17.82;33.15;99143.28;3561374;40;20069;-50
2021/05/05 11:31:53;;;;;;;2.72;0.60;;;;;;;18.36;30.42;99141.72;3565151;40;20319;-51
2021/05/05 11:34:23;;;;;;;3.22;0.60;;;;;;;21.38;27.55;99139.25;3564587;40;20494;-55
2021/05/05 11:37:17;;;;;;;1.73;0.55;;;;;;;21.95;28.41;99135.78;3564692;40;20061;-53
2021/05/05 11:39:56;;;;;;;9.60;0.90;;;;;;;22.50;27.64;99163.69;3563288;40;20053;-54
2021/05/05 11:42:27;;;;;;;8.18;1.02;;;;;;;20.93;29.10;99146.28;3563578;40;20073;-47
2021/05/05 11:45:12;;;;;;;1.80;0.68;;;;;;;20.50;30.59;99137.63;3564613;40;20840;-51
2021/05/05 11:47:43;;;;;;;4.20;0.82;;;;;;;20.43;29.85;99148.31;3565633;40;20065;-58
2021/05/05 11:50:13;;;;;;;0.70;0.60;;;;;;;22.21;27.78;99147.66;3565108;40;20057;-56
2021/05/05 11:52:42;;;;;;;0.90;0.70;;;;;;;24.62;24.68;99165.72;3565825;40;20112;-53